Time;durP1;ratioP1;P1;durP2;ratioP2;P2;SDS_P1;SDS_P2;PMS_P1;PMS_P2;Temp;Humidity;BMP_temperature;BMP_pressure;BME280_temperature;BME280_humidity;BME280_pressure;Samples;Min_cycle;Max_cycle;Signal;HPM_P1;HPM_P2
2021/10/15 00:00:39;;;;;;;11.57;5.05;;;;;;;;;;4993370;28;20155;-80
2021/10/15 00:03:05;;;;;;;15.55;5.32;;;;;;;;;;4994172;28;20018;-80
2021/10/15 00:05:30;;;;;;;9.82;5.13;;;;;;;;;;4994066;28;20069;-80
2021/10/15 00:07:55;;;;;;;7.88;4.85;;;;;;;;;;4993969;28;20053;-80
2021/10/15 00:10:21;;;;;;;13.82;5.38;;;;;;;;;;4994096;28;20035;-79
2021/10/15 00:12:46;;;;;;;16.42;6.05;;;;;;;;;;4993974;28;20471;-79
2021/10/15 00:15:11;;;;;;;13.02;6.07;;;;;;;;;;4993979;28;20049;-80
2021/10/15 00:17:37;;;;;;;12.30;6.00;;;;;;;;;;4993781;28;20113;-79
2021/10/15 00:20:03;;;;;;;17.38;6.50;;;;;;;;;;4994021;28;20049;-79
2021/10/15 00:22:28;;;;;;;11.77;6.40;;;;;;;;;;4993969;28;20027;-79
2021/10/15 00:24:53;;;;;;;17.05;6.32;;;;;;;;;;4976470;28;20030;-80
2021/10/15 00:27:18;;;;;;;16.45;6.60;;;;;;;;;;4993834;28;20066;-80
2021/10/15 00:29:44;;;;;;;12.98;6.72;;;;;;;;;;4993859;28;20073;-80
2021/10/15 00:32:09;;;;;;;14.02;6.47;;;;;;;;;;4993976;28;20442;-79
2021/10/15 00:34:34;;;;;;;17.60;7.30;;;;;;;;;;4993854;28;20446;-80
2021/10/15 00:37:00;;;;;;;18.02;8.73;;;;;;;;;;4993827;28;20572;-79
2021/10/15 00:39:25;;;;;;;16.17;6.20;;;;;;;;;;4993858;28;20019;-79
2021/10/15 00:41:50;;;;;;;14.73;5.75;;;;;;;;;;4993526;28;20544;-79
2021/10/15 00:44:15;;;;;;;13.25;6.30;;;;;;;;;;4993850;28;20034;-80
2021/10/15 00:46:42;;;;;;;10.70;5.45;;;;;;;;;;4993541;28;20537;-79
2021/10/15 00:49:08;;;;;;;16.65;5.57;;;;;;;;;;4992446;28;20066;-79
2021/10/15 00:51:34;;;;;;;12.40;5.75;;;;;;;;;;4993437;28;20378;-79
2021/10/15 00:54:00;;;;;;;194.13;16.80;;;;;;;;;;4993674;28;20101;-79
2021/10/15 00:56:27;;;;;;;14.88;7.32;;;;;;;;;;4993691;28;20084;-79
2021/10/15 00:58:52;;;;;;;23.17;8.13;;;;;;;;;;4993656;28;20033;-79
2021/10/15 01:01:17;;;;;;;12.90;5.35;;;;;;;;;;4993662;28;20026;-79
2021/10/15 01:03:43;;;;;;;15.15;4.88;;;;;;;;;;4993628;28;20041;-80
2021/10/15 01:06:08;;;;;;;21.55;4.40;;;;;;;;;;4993626;28;20129;-79
2021/10/15 01:08:39;;;;;;;10.88;4.65;;;;;;;;;;4993520;28;20461;-79
2021/10/15 01:11:05;;;;;;;303.15;23.38;;;;;;;;;;4978068;28;20107;-79
2021/10/15 01:13:30;;;;;;;12.23;5.22;;;;;;;;;;4996799;28;20458;-79
2021/10/15 01:16:06;;;;;;;9.15;4.68;;;;;;;;;;4997028;28;20022;-79
2021/10/15 01:18:31;;;;;;;6.38;2.17;;;;;;;;;;4996598;28;20041;-79
2021/10/15 01:20:56;;;;;;;5.45;2.30;;;;;;;;;;4996937;28;20414;-79
2021/10/15 01:23:22;;;;;;;2.08;1.00;;;;;;;;;;4995661;28;20034;-79
2021/10/15 01:25:50;;;;;;;4.30;0.85;;;;;;;;;;4996792;28;20038;-79
2021/10/15 01:28:15;;;;;;;2.90;1.60;;;;;;;;;;4996882;28;20026;-80
2021/10/15 01:30:41;;;;;;;3.00;1.40;;;;;;;;;;4996896;28;20454;-79
2021/10/15 01:33:06;;;;;;;2.63;1.67;;;;;;;;;;4996686;28;20026;-79
2021/10/15 01:35:31;;;;;;;3.97;1.58;;;;;;;;;;4996685;28;20105;-79
2021/10/15 01:37:56;;;;;;;4.07;1.45;;;;;;;;;;4996569;28;20441;-79
2021/10/15 01:40:22;;;;;;;4.38;0.70;;;;;;;;;;4979215;28;20036;-79
2021/10/15 01:42:56;;;;;;;1.75;1.10;;;;;;;;;;4996203;28;20033;-79
2021/10/15 01:45:26;;;;;;;0.95;0.75;;;;;;;;;;4978944;28;20030;-79
2021/10/15 01:47:52;;;;;;;5.43;1.08;;;;;;;;;;4996286;28;20077;-79
2021/10/15 01:50:18;;;;;;;3.55;1.10;;;;;;;;;;4996357;28;20073;-80
2021/10/15 01:52:43;;;;;;;3.83;1.08;;;;;;;;;;4996217;28;20077;-79
2021/10/15 01:55:09;;;;;;;0.40;0.40;;;;;;;;;;4996331;28;20113;-79
2021/10/15 01:57:34;;;;;;;1.00;0.73;;;;;;;;;;4996302;28;20034;-79
2021/10/15 02:00:00;;;;;;;0.25;0.22;;;;;;;;;;4996078;28;20022;-79
2021/10/15 02:02:25;;;;;;;0.52;0.45;;;;;;;;;;4995977;28;20026;-79
2021/10/15 02:04:52;;;;;;;0.32;0.32;;;;;;;;;;4996108;28;20046;-79
2021/10/15 02:07:17;;;;;;;0.38;0.38;;;;;;;;;;4996084;28;20033;-79
2021/10/15 02:09:42;;;;;;;0.40;0.40;;;;;;;;;;4996020;28;20042;-79
2021/10/15 02:12:08;;;;;;;0.10;0.10;;;;;;;;;;4996098;28;20034;-79
2021/10/15 02:14:33;;;;;;;0.10;0.10;;;;;;;;;;4996083;28;20022;-79
2021/10/15 02:16:58;;;;;;;0.10;0.10;;;;;;;;;;4995920;28;20462;-79
2021/10/15 02:19:24;;;;;;;0.00;0.00;;;;;;;;;;4995880;28;20034;-79
2021/10/15 02:21:49;;;;;;;0.30;0.20;;;;;;;;;;4995289;28;20084;-79
2021/10/15 02:24:14;;;;;;;0.57;0.50;;;;;;;;;;4995951;28;20023;-79
2021/10/15 02:26:39;;;;;;;0.95;0.82;;;;;;;;;;4996077;28;20088;-79
2021/10/15 02:29:05;;;;;;;0.00;0.00;;;;;;;;;;4995660;28;20038;-79
2021/10/15 02:31:30;;;;;;;0.90;0.70;;;;;;;;;;4995793;28;20037;-79
2021/10/15 02:33:55;;;;;;;0.13;0.13;;;;;;;;;;4995620;28;20885;-79
2021/10/15 02:36:20;;;;;;;0.20;0.20;;;;;;;;;;4995786;28;20050;-79
2021/10/15 02:38:46;;;;;;;1.70;1.10;;;;;;;;;;4995473;28;20096;-80
2021/10/15 02:41:11;;;;;;;0.47;0.47;;;;;;;;;;4995742;28;20034;-79
2021/10/15 02:43:37;;;;;;;0.20;0.13;;;;;;;;;;4995373;28;20026;-80
2021/10/15 02:46:02;;;;;;;0.40;0.32;;;;;;;;;;4995314;28;20034;-79
2021/10/15 02:48:27;;;;;;;0.52;0.47;;;;;;;;;;4995229;28;20030;-79
2021/10/15 02:50:53;;;;;;;1.65;0.68;;;;;;;;;;4995250;28;20054;-79
2021/10/15 02:53:18;;;;;;;0.08;0.08;;;;;;;;;;4995315;28;20042;-79
2021/10/15 02:55:43;;;;;;;2.63;1.17;;;;;;;;;;4995152;28;20471;-79
2021/10/15 02:58:08;;;;;;;0.40;0.40;;;;;;;;;;4995144;28;20080;-79
2021/10/15 03:00:34;;;;;;;0.05;0.05;;;;;;;;;;4995150;28;20042;-79
2021/10/15 03:02:59;;;;;;;0.45;0.45;;;;;;;;;;4995026;28;20434;-79
2021/10/15 03:05:24;;;;;;;0.75;0.75;;;;;;;;;;4994682;28;20548;-79
2021/10/15 03:07:49;;;;;;;0.20;0.20;;;;;;;;;;4994976;28;20053;-79
2021/10/15 03:10:15;;;;;;;0.20;0.20;;;;;;;;;;4995090;28;20046;-79
2021/10/15 03:12:40;;;;;;;0.13;0.10;;;;;;;;;;4994639;28;20386;-79
2021/10/15 03:15:07;;;;;;;0.10;0.10;;;;;;;;;;4994835;28;20026;-79
2021/10/15 03:17:32;;;;;;;0.08;0.08;;;;;;;;;;4994551;28;20466;-79
2021/10/15 03:19:58;;;;;;;0.00;0.00;;;;;;;;;;4994668;28;20027;-79
2021/10/15 03:22:23;;;;;;;0.13;0.10;;;;;;;;;;4994493;28;20402;-79
2021/10/15 03:24:48;;;;;;;0.00;0.00;;;;;;;;;;4994687;28;20034;-80
2021/10/15 03:27:13;;;;;;;0.20;0.10;;;;;;;;;;4994657;28;20018;-79
2021/10/15 03:29:39;;;;;;;0.63;0.55;;;;;;;;;;4994486;28;20116;-80
2021/10/15 03:32:04;;;;;;;0.05;0.05;;;;;;;;;;4994620;28;20470;-79
2021/10/15 03:34:29;;;;;;;0.30;0.20;;;;;;;;;;4993569;28;20030;-79
2021/10/15 03:36:55;;;;;;;0.57;0.57;;;;;;;;;;4994545;28;20085;-79
2021/10/15 03:39:20;;;;;;;0.10;0.10;;;;;;;;;;4994204;28;20054;-80
2021/10/15 03:41:45;;;;;;;0.93;0.10;;;;;;;;;;4994430;28;20030;-79
2021/10/15 03:44:10;;;;;;;0.70;0.45;;;;;;;;;;4994379;28;20092;-79
2021/10/15 03:46:36;;;;;;;0.38;0.30;;;;;;;;;;4994043;28;20113;-79
2021/10/15 03:49:01;;;;;;;0.03;0.03;;;;;;;;;;4994277;28;20034;-79
2021/10/15 03:51:26;;;;;;;0.17;0.17;;;;;;;;;;4994267;28;20414;-79
2021/10/15 03:53:51;;;;;;;0.10;0.10;;;;;;;;;;4994300;28;20360;-79
2021/10/15 03:56:17;;;;;;;1.75;0.85;;;;;;;;;;4993885;28;20022;-79
2021/10/15 03:58:42;;;;;;;0.30;0.30;;;;;;;;;;4994181;28;20033;-79
2021/10/15 04:01:07;;;;;;;0.10;0.10;;;;;;;;;;4994167;28;20039;-79
2021/10/15 04:03:33;;;;;;;0.10;0.10;;;;;;;;;;4994146;28;20054;-79
2021/10/15 04:05:58;;;;;;;8.85;1.55;;;;;;;;;;4994095;28;20093;-79
2021/10/15 04:08:23;;;;;;;0.15;0.15;;;;;;;;;;4994032;28;20034;-79
2021/10/15 04:10:48;;;;;;;0.00;0.00;;;;;;;;;;4994033;28;20069;-79
2021/10/15 04:13:14;;;;;;;0.00;0.00;;;;;;;;;;4994099;28;20486;-79
2021/10/15 04:15:39;;;;;;;0.15;0.15;;;;;;;;;;4994111;28;20118;-80
2021/10/15 04:18:04;;;;;;;0.00;0.00;;;;;;;;;;4994028;28;20404;-79
2021/10/15 04:20:30;;;;;;;0.00;0.00;;;;;;;;;;4994019;28;20022;-79
2021/10/15 04:22:55;;;;;;;0.30;0.25;;;;;;;;;;4994088;28;20034;-79
2021/10/15 04:25:20;;;;;;;1.10;0.77;;;;;;;;;;4993939;28;20019;-79
2021/10/15 04:27:45;;;;;;;0.40;0.40;;;;;;;;;;4993516;28;20023;-80
2021/10/15 04:30:11;;;;;;;0.20;0.20;;;;;;;;;;4993913;28;20038;-79
2021/10/15 04:32:36;;;;;;;0.00;0.00;;;;;;;;;;4993868;28;20068;-80
2021/10/15 04:35:01;;;;;;;3.47;1.27;;;;;;;;;;4993682;28;20022;-79
2021/10/15 04:37:27;;;;;;;0.00;0.00;;;;;;;;;;4993870;28;20168;-79
2021/10/15 04:39:52;;;;;;;0.00;0.00;;;;;;;;;;4994078;28;20029;-80
2021/10/15 04:42:19;;;;;;;0.10;0.10;;;;;;;;;;4993370;28;20035;-80
2021/10/15 04:44:44;;;;;;;0.32;0.32;;;;;;;;;;4993815;28;20499;-79
2021/10/15 04:47:09;;;;;;;1.48;0.82;;;;;;;;;;4997544;28;20050;-79
2021/10/15 04:49:35;;;;;;;0.00;0.00;;;;;;;;;;4997536;28;20042;-79
2021/10/15 04:52:00;;;;;;;0.00;0.00;;;;;;;;;;4997436;28;20035;-79
2021/10/15 04:54:25;;;;;;;0.08;0.08;;;;;;;;;;4997725;28;20030;-79
2021/10/15 04:56:50;;;;;;;0.20;0.15;;;;;;;;;;4997329;28;20027;-80
2021/10/15 04:59:16;;;;;;;0.00;0.00;;;;;;;;;;4997498;28;20042;-79
2021/10/15 05:01:41;;;;;;;0.10;0.10;;;;;;;;;;4997507;28;20462;-79
2021/10/15 05:04:06;;;;;;;0.17;0.17;;;;;;;;;;5001187;28;20060;-79
2021/10/15 05:06:32;;;;;;;9.63;0.90;;;;;;;;;;5016604;28;20137;-79
2021/10/15 05:11:31;;;;;;;0.22;0.22;;;;;;;;;;5016119;28;20042;-79
2021/10/15 05:13:57;;;;;;;0.17;0.17;;;;;;;;;;5016635;28;20044;-80
2021/10/15 05:16:22;;;;;;;0.00;0.00;;;;;;;;;;5016346;28;20129;-79
2021/10/15 05:18:47;;;;;;;0.00;0.00;;;;;;;;;;5016457;28;20057;-79
2021/10/15 05:21:13;;;;;;;0.10;0.10;;;;;;;;;;5016510;28;20030;-79
2021/10/15 05:23:38;;;;;;;0.00;0.00;;;;;;;;;;5016918;28;20030;-80
2021/10/15 05:26:03;;;;;;;0.00;0.00;;;;;;;;;;5016395;28;20028;-79
2021/10/15 05:28:29;;;;;;;0.30;0.28;;;;;;;;;;5016064;28;20034;-79
2021/10/15 05:30:57;;;;;;;0.10;0.10;;;;;;;;;;5016007;28;20108;-79
2021/10/15 05:33:22;;;;;;;0.10;0.10;;;;;;;;;;5016380;28;20018;-79
2021/10/15 05:35:48;;;;;;;0.20;0.20;;;;;;;;;;5016225;28;20033;-79
2021/10/15 05:38:13;;;;;;;0.20;0.20;;;;;;;;;;5016259;28;20485;-79
2021/10/15 05:40:38;;;;;;;0.40;0.20;;;;;;;;;;5016149;28;20029;-80
2021/10/15 05:43:04;;;;;;;0.00;0.00;;;;;;;;;;5016124;28;20044;-79
2021/10/15 05:45:29;;;;;;;0.20;0.20;;;;;;;;;;5010229;28;20108;-81
2021/10/15 05:47:54;;;;;;;0.00;0.00;;;;;;;;;;5014750;28;20118;-81
2021/10/15 05:50:20;;;;;;;0.63;0.63;;;;;;;;;;5016102;28;20474;-79
2021/10/15 05:52:48;;;;;;;0.00;0.00;;;;;;;;;;5015960;28;20029;-79
2021/10/15 06:00:23;;;;;;;0.20;0.20;;;;;;;;;;5015525;28;20130;-79
2021/10/15 06:02:49;;;;;;;0.00;0.00;;;;;;;;;;5015489;28;20493;-79
2021/10/15 06:15:51;;;;;;;0.05;0.05;;;;;;;;;;5015458;28;20053;-79
2021/10/15 06:18:20;;;;;;;0.10;0.10;;;;;;;;;;5015472;28;20374;-79
2021/10/15 06:20:46;;;;;;;0.10;0.10;;;;;;;;;;5015134;28;20478;-79
2021/10/15 06:23:12;;;;;;;0.10;0.10;;;;;;;;;;5015098;28;20029;-79
2021/10/15 06:25:37;;;;;;;0.55;0.55;;;;;;;;;;5015479;28;20021;-79
2021/10/15 06:28:03;;;;;;;0.20;0.20;;;;;;;;;;5015220;28;20041;-79
2021/10/15 06:30:29;;;;;;;0.80;0.45;;;;;;;;;;5015396;28;20080;-79
2021/10/15 06:32:54;;;;;;;1.65;0.90;;;;;;;;;;5014944;28;20450;-80
2021/10/15 06:35:20;;;;;;;0.00;0.00;;;;;;;;;;5015269;28;20064;-79
2021/10/15 06:37:45;;;;;;;0.45;0.38;;;;;;;;;;5015164;28;20343;-80
2021/10/15 06:40:11;;;;;;;0.77;0.52;;;;;;;;;;5015181;28;20026;-79
2021/10/15 06:42:36;;;;;;;0.60;0.60;;;;;;;;;;5015110;28;20377;-79
2021/10/15 06:45:02;;;;;;;0.40;0.40;;;;;;;;;;5015019;28;20454;-80
2021/10/15 06:47:28;;;;;;;0.17;0.17;;;;;;;;;;5014657;28;20029;-80
2021/10/15 06:49:54;;;;;;;0.45;0.45;;;;;;;;;;5014720;28;20452;-80
2021/10/15 06:52:19;;;;;;;0.00;0.00;;;;;;;;;;5015062;28;20018;-80
2021/10/15 06:54:44;;;;;;;2.97;0.93;;;;;;;;;;5014809;28;20018;-79
2021/10/15 06:57:10;;;;;;;0.00;0.00;;;;;;;;;;5014788;28;20044;-79
2021/10/15 06:59:35;;;;;;;0.28;0.28;;;;;;;;;;5014918;28;20053;-79
2021/10/15 07:02:00;;;;;;;0.15;0.15;;;;;;;;;;5014876;28;20033;-79
2021/10/15 07:04:26;;;;;;;3.90;0.75;;;;;;;;;;5014384;28;20030;-79
2021/10/15 07:06:51;;;;;;;0.47;0.45;;;;;;;;;;5014633;28;20018;-79
2021/10/15 07:09:16;;;;;;;0.13;0.13;;;;;;;;;;5014304;28;20385;-79
2021/10/15 07:11:41;;;;;;;0.10;0.10;;;;;;;;;;5014490;28;20034;-80
2021/10/15 07:14:07;;;;;;;0.30;0.30;;;;;;;;;;5014418;28;20560;-80
2021/10/15 07:16:32;;;;;;;0.00;0.00;;;;;;;;;;5014873;28;20076;-80
2021/10/15 07:18:57;;;;;;;0.00;0.00;;;;;;;;;;5014300;28;20547;-80
2021/10/15 07:21:23;;;;;;;0.00;0.00;;;;;;;;;;5014203;28;20072;-81
2021/10/15 07:23:48;;;;;;;0.25;0.25;;;;;;;;;;5013980;28;20022;-80
2021/10/15 07:26:13;;;;;;;0.10;0.10;;;;;;;;;;5014322;28;20046;-80
2021/10/15 07:28:39;;;;;;;0.15;0.15;;;;;;;;;;5014137;28;20030;-81
2021/10/15 07:31:04;;;;;;;2.35;0.68;;;;;;;;;;5014582;28;20053;-79
2021/10/15 07:33:29;;;;;;;0.00;0.00;;;;;;;;;;5013936;28;20037;-79
2021/10/15 07:35:55;;;;;;;0.10;0.10;;;;;;;;;;4996487;28;20116;-80
2021/10/15 07:38:20;;;;;;;0.20;0.20;;;;;;;;;;4995522;28;20026;-80
2021/10/15 07:40:45;;;;;;;0.08;0.08;;;;;;;;;;4994000;28;20494;-80
2021/10/15 07:43:10;;;;;;;0.00;0.00;;;;;;;;;;4994354;28;20494;-79
2021/10/15 07:45:36;;;;;;;0.20;0.20;;;;;;;;;;4994207;28;20026;-79
2021/10/15 07:48:01;;;;;;;0.10;0.10;;;;;;;;;;4993847;28;20050;-80
2021/10/15 07:50:27;;;;;;;0.00;0.00;;;;;;;;;;4994379;28;20022;-80
2021/10/15 07:52:52;;;;;;;0.55;0.52;;;;;;;;;;4976853;28;20026;-79
2021/10/15 07:55:17;;;;;;;0.20;0.20;;;;;;;;;;4994266;28;20042;-80
2021/10/15 07:57:43;;;;;;;0.90;0.43;;;;;;;;;;4993747;28;20073;-84
2021/10/15 08:00:09;;;;;;;0.10;0.10;;;;;;;;;;4992061;28;20044;-79
2021/10/15 08:02:34;;;;;;;10.23;1.45;;;;;;;;;;5013290;28;20113;-79
2021/10/15 08:05:00;;;;;;;0.00;0.00;;;;;;;;;;5013025;28;20088;-80
2021/10/15 08:07:25;;;;;;;0.00;0.00;;;;;;;;;;5013678;28;20030;-79
2021/10/15 08:09:50;;;;;;;0.90;0.82;;;;;;;;;;5013348;28;20042;-80
2021/10/15 08:12:16;;;;;;;0.30;0.30;;;;;;;;;;5013581;28;20030;-79
2021/10/15 08:14:41;;;;;;;1.80;0.65;;;;;;;;;;5013556;28;20018;-79
2021/10/15 08:17:06;;;;;;;0.00;0.00;;;;;;;;;;5012150;28;20040;-79
2021/10/15 08:19:32;;;;;;;0.00;0.00;;;;;;;;;;5013658;28;20054;-79
2021/10/15 08:21:57;;;;;;;0.20;0.20;;;;;;;;;;5016846;28;20022;-80
2021/10/15 08:24:24;;;;;;;0.00;0.00;;;;;;;;;;5013432;28;20112;-79
2021/10/15 08:26:50;;;;;;;0.00;0.00;;;;;;;;;;5024801;28;20022;-84
2021/10/15 08:29:16;;;;;;;0.03;0.03;;;;;;;;;;5010073;28;20474;-79
2021/10/15 08:31:41;;;;;;;0.10;0.10;;;;;;;;;;4994115;28;20132;-80
2021/10/15 08:34:10;;;;;;;0.00;0.00;;;;;;;;;;5002184;28;20095;-80
2021/10/15 08:36:38;;;;;;;0.00;0.00;;;;;;;;;;5013985;28;20029;-79
2021/10/15 08:39:03;;;;;;;0.00;0.00;;;;;;;;;;5012090;28;20466;-79
2021/10/15 08:41:29;;;;;;;0.00;0.00;;;;;;;;;;5015916;28;20024;-80
